sensor_id;sensor_type;location;lat;lon;timestamp;pressure;altitude;pressure_sealevel;temperature;humidity
48778;BME280;34578;0.000;0.000;2023-04-28T00:01:19;96437.69;;;17.27;55.04
48778;BME280;34578;0.000;0.000;2023-04-28T00:06:19;96435.16;;;17.33;60.93
48778;BME280;34578;0.000;0.000;2023-04-28T00:11:20;96430.13;;;17.39;61.80
48778;BME280;34578;0.000;0.000;2023-04-28T00:16:20;96428.47;;;17.41;61.43
48778;BME280;34578;0.000;0.000;2023-04-28T00:21:21;96413.25;;;17.38;57.37
48778;BME280;34578;0.000;0.000;2023-04-28T00:26:21;96404.81;;;17.33;55.99
48778;BME280;34578;0.000;0.000;2023-04-28T00:31:22;96400.59;;;17.30;55.42
48778;BME280;34578;0.000;0.000;2023-04-28T00:36:22;96403.97;;;17.29;55.49
48778;BME280;34578;0.000;0.000;2023-04-28T00:41:22;96377.81;;;17.29;55.39
48778;BME280;34578;0.000;0.000;2023-04-28T00:46:29;96376.97;;;17.27;55.24
48778;BME280;34578;0.000;0.000;2023-04-28T00:51:30;96382.03;;;17.28;55.22
48778;BME280;34578;0.000;0.000;2023-04-28T00:56:32;96382.88;;;17.29;55.39
48778;BME280;34578;0.000;0.000;2023-04-28T01:01:34;96374.44;;;17.27;55.13
48778;BME280;34578;0.000;0.000;2023-04-28T01:06:34;96381.19;;;17.26;55.05
48778;BME280;34578;0.000;0.000;2023-04-28T01:11:36;96380.34;;;17.26;55.19
48778;BME280;34578;0.000;0.000;2023-04-28T01:16:44;96384.56;;;17.27;55.38
48778;BME280;34578;0.000;0.000;2023-04-28T01:21:45;96392.19;;;17.36;61.60
48778;BME280;34578;0.000;0.000;2023-04-28T01:26:54;96413.25;;;17.38;61.78
48778;BME280;34578;0.000;0.000;2023-04-28T01:31:56;96414.94;;;17.39;60.51
48778;BME280;34578;0.000;0.000;2023-04-28T01:36:56;96421.66;;;17.34;56.61
48778;BME280;34578;0.000;0.000;2023-04-28T01:41:56;96425.03;;;17.30;56.01
48778;BME280;34578;0.000;0.000;2023-04-28T01:46:57;96435.16;;;17.28;55.61
48778;BME280;34578;0.000;0.000;2023-04-28T01:51:57;96452.03;;;17.28;55.31
48778;BME280;34578;0.000;0.000;2023-04-28T01:56:58;96456.25;;;17.27;55.40
48778;BME280;34578;0.000;0.000;2023-04-28T02:01:59;96458.78;;;17.26;55.61
48778;BME280;34578;0.000;0.000;2023-04-28T02:07:00;96468.91;;;17.26;55.05
48778;BME280;34578;0.000;0.000;2023-04-28T02:12:01;96467.22;;;17.25;55.21
48778;BME280;34578;0.000;0.000;2023-04-28T02:17:02;96465.53;;;17.24;54.83
48778;BME280;34578;0.000;0.000;2023-04-28T02:22:04;96463.00;;;17.22;54.46
48778;BME280;34578;0.000;0.000;2023-04-28T02:27:05;96452.00;;;17.22;54.71
48778;BME280;34578;0.000;0.000;2023-04-28T02:32:05;96448.66;;;17.32;60.51
48778;BME280;34578;0.000;0.000;2023-04-28T02:37:06;96446.13;;;17.35;61.44
48778;BME280;34578;0.000;0.000;2023-04-28T02:42:06;96438.56;;;17.38;61.21
48778;BME280;34578;0.000;0.000;2023-04-28T02:47:09;96439.38;;;17.34;58.29
48778;BME280;34578;0.000;0.000;2023-04-28T02:52:10;96430.94;;;17.29;56.06
48778;BME280;34578;0.000;0.000;2023-04-28T02:57:10;96426.75;;;17.25;55.86
48778;BME280;34578;0.000;0.000;2023-04-28T03:02:10;96420.81;;;17.24;55.31
48778;BME280;34578;0.000;0.000;2023-04-28T03:07:11;96421.69;;;17.25;55.72
48778;BME280;34578;0.000;0.000;2023-04-28T03:12:12;96420.81;;;17.26;55.15
48778;BME280;34578;0.000;0.000;2023-04-28T03:17:12;96425.91;;;17.27;55.11
48778;BME280;34578;0.000;0.000;2023-04-28T03:22:13;96409.88;;;17.27;55.35
48778;BME280;34578;0.000;0.000;2023-04-28T03:27:13;96425.03;;;17.27;54.66
48778;BME280;34578;0.000;0.000;2023-04-28T03:32:13;96419.13;;;17.26;54.86
48778;BME280;34578;0.000;0.000;2023-04-28T03:37:14;96403.97;;;17.25;55.00
48778;BME280;34578;0.000;0.000;2023-04-28T03:42:14;96405.63;;;17.29;54.97
48778;BME280;34578;0.000;0.000;2023-04-28T03:47:34;96398.06;;;17.35;60.99
48778;BME280;34578;0.000;0.000;2023-04-28T03:52:35;96393.88;;;17.38;60.91
48778;BME280;34578;0.000;0.000;2023-04-28T03:57:35;96395.56;;;17.39;57.31
48778;BME280;34578;0.000;0.000;2023-04-28T04:02:36;96375.28;;;17.38;55.38
48778;BME280;34578;0.000;0.000;2023-04-28T04:07:36;96371.09;;;17.38;57.17
48778;BME280;34578;0.000;0.000;2023-04-28T04:12:37;96366.00;;;17.34;59.34
48778;BME280;34578;0.000;0.000;2023-04-28T04:17:37;96374.44;;;17.39;55.70
48778;BME280;34578;0.000;0.000;2023-04-28T04:22:37;96377.81;;;17.38;55.38
48778;BME280;34578;0.000;0.000;2023-04-28T04:27:38;96379.50;;;17.39;55.09
48778;BME280;34578;0.000;0.000;2023-04-28T04:32:38;96376.16;;;17.40;55.58
48778;BME280;34578;0.000;0.000;2023-04-28T04:37:39;96379.50;;;17.39;56.37
48778;BME280;34578;0.000;0.000;2023-04-28T04:42:40;96381.22;;;17.38;55.54
48778;BME280;34578;0.000;0.000;2023-04-28T04:47:43;96387.97;;;17.36;55.91
48778;BME280;34578;0.000;0.000;2023-04-28T04:52:44;96393.00;;;17.38;55.78
48778;BME280;34578;0.000;0.000;2023-04-28T04:57:45;96401.44;;;17.43;61.03
48778;BME280;34578;0.000;0.000;2023-04-28T05:03:04;96385.41;;;17.47;60.98
48778;BME280;34578;0.000;0.000;2023-04-28T05:08:05;96378.66;;;17.46;60.78
48778;BME280;34578;0.000;0.000;2023-04-28T05:13:06;96374.44;;;17.45;55.88
48778;BME280;34578;0.000;0.000;2023-04-28T05:18:07;96371.94;;;17.43;55.51
48778;BME280;34578;0.000;0.000;2023-04-28T05:23:10;96380.38;;;17.41;55.84
48778;BME280;34578;0.000;0.000;2023-04-28T05:28:10;96374.47;;;17.42;55.24
48778;BME280;34578;0.000;0.000;2023-04-28T05:33:11;96374.47;;;17.42;55.56
48778;BME280;34578;0.000;0.000;2023-04-28T05:38:11;96372.75;;;17.38;55.84
48778;BME280;34578;0.000;0.000;2023-04-28T05:43:12;96373.63;;;17.40;55.13
48778;BME280;34578;0.000;0.000;2023-04-28T05:48:12;96376.16;;;17.37;55.23
48778;BME280;34578;0.000;0.000;2023-04-28T05:53:14;96376.97;;;17.39;55.03
48778;BME280;34578;0.000;0.000;2023-04-28T05:58:15;96377.81;;;17.38;54.83
48778;BME280;34578;0.000;0.000;2023-04-28T06:03:15;96376.16;;;17.37;55.04
48778;BME280;34578;0.000;0.000;2023-04-28T06:08:19;96382.06;;;17.42;58.95
48778;BME280;34578;0.000;0.000;2023-04-28T06:13:19;96372.75;;;17.54;60.86
48778;BME280;34578;0.000;0.000;2023-04-28T06:18:19;96382.03;;;17.57;59.88
48778;BME280;34578;0.000;0.000;2023-04-28T06:23:20;96390.47;;;17.47;55.67
48778;BME280;34578;0.000;0.000;2023-04-28T06:28:22;96382.91;;;17.41;54.50
48778;BME280;34578;0.000;0.000;2023-04-28T06:33:22;96366.00;;;17.35;55.56
48778;BME280;34578;0.000;0.000;2023-04-28T06:38:23;96381.19;;;17.34;55.37
48778;BME280;34578;0.000;0.000;2023-04-28T06:43:23;96390.44;;;17.33;55.98
48778;BME280;34578;0.000;0.000;2023-04-28T06:48:36;96371.91;;;17.31;55.59
48778;BME280;34578;0.000;0.000;2023-04-28T06:53:37;96384.56;;;17.33;54.84
48778;BME280;34578;0.000;0.000;2023-04-28T06:58:41;96394.69;;;17.33;55.96
48778;BME280;34578;0.000;0.000;2023-04-28T07:03:42;96410.69;;;17.35;55.13
48778;BME280;34578;0.000;0.000;2023-04-28T07:08:42;96423.38;;;17.32;54.81
48778;BME280;34578;0.000;0.000;2023-04-28T07:13:43;96403.97;;;17.31;54.50
48778;BME280;34578;0.000;0.000;2023-04-28T07:18:45;96403.97;;;17.34;58.34
48778;BME280;34578;0.000;0.000;2023-04-28T07:23:45;96404.00;;;17.49;62.39
48778;BME280;34578;0.000;0.000;2023-04-28T07:28:46;96396.38;;;17.52;62.94
48778;BME280;34578;0.000;0.000;2023-04-28T07:33:46;96417.47;;;17.46;59.19
48778;BME280;34578;0.000;0.000;2023-04-28T07:38:47;96412.41;;;17.40;55.20
48778;BME280;34578;0.000;0.000;2023-04-28T07:43:47;96403.97;;;17.35;54.86
48778;BME280;34578;0.000;0.000;2023-04-28T07:48:47;96409.03;;;17.34;54.98
48778;BME280;34578;0.000;0.000;2023-04-28T07:53:48;96394.66;;;17.30;54.73
48778;BME280;34578;0.000;0.000;2023-04-28T07:58:48;96412.41;;;17.33;54.76
48778;BME280;34578;0.000;0.000;2023-04-28T08:03:48;96418.28;;;17.35;54.89
48778;BME280;34578;0.000;0.000;2023-04-28T08:08:49;96414.94;;;17.36;54.18
48778;BME280;34578;0.000;0.000;2023-04-28T08:13:49;96418.28;;;17.35;54.40
48778;BME280;34578;0.000;0.000;2023-04-28T08:18:50;96416.59;;;17.34;54.59
48778;BME280;34578;0.000;0.000;2023-04-28T08:23:50;96414.09;;;17.31;54.38
48778;BME280;34578;0.000;0.000;2023-04-28T08:28:51;96420.00;;;17.33;54.64
48778;BME280;34578;0.000;0.000;2023-04-28T08:33:52;96423.41;;;17.41;63.18
48778;BME280;34578;0.000;0.000;2023-04-28T08:38:52;96438.56;;;17.44;63.86
48778;BME280;34578;0.000;0.000;2023-04-28T08:43:53;96456.28;;;17.42;59.07
48778;BME280;34578;0.000;0.000;2023-04-28T08:48:59;96452.84;;;17.34;56.90
48778;BME280;34578;0.000;0.000;2023-04-28T08:54:02;96476.53;;;17.36;55.94
48778;BME280;34578;0.000;0.000;2023-04-28T08:59:04;96484.09;;;17.35;56.38
48778;BME280;34578;0.000;0.000;2023-04-28T09:04:04;96473.09;;;17.34;55.94
48778;BME280;34578;0.000;0.000;2023-04-28T09:09:21;96466.34;;;17.33;55.74
48778;BME280;34578;0.000;0.000;2023-04-28T09:14:22;96471.41;;;17.33;55.55
48778;BME280;34578;0.000;0.000;2023-04-28T09:19:24;96479.84;;;17.32;55.58
48778;BME280;34578;0.000;0.000;2023-04-28T09:24:34;96473.97;;;17.32;55.49
48778;BME280;34578;0.000;0.000;2023-04-28T09:29:35;96489.16;;;17.32;55.73
48778;BME280;34578;0.000;0.000;2023-04-28T09:34:45;96483.22;;;17.30;55.34
48778;BME280;34578;0.000;0.000;2023-04-28T09:39:48;96494.22;;;17.32;55.61
48778;BME280;34578;0.000;0.000;2023-04-28T09:44:53;96483.28;;;17.43;64.56
48778;BME280;34578;0.000;0.000;2023-04-28T09:49:57;96483.28;;;17.48;64.28
48778;BME280;34578;0.000;0.000;2023-04-28T09:55:00;96494.22;;;17.47;58.48
48778;BME280;34578;0.000;0.000;2023-04-28T10:00:02;96488.34;;;17.43;56.43
48778;BME280;34578;0.000;0.000;2023-04-28T10:05:07;96486.66;;;17.41;56.14
48778;BME280;34578;0.000;0.000;2023-04-28T10:10:08;96479.03;;;17.38;55.93
48778;BME280;34578;0.000;0.000;2023-04-28T10:15:10;96483.25;;;17.39;55.86
48778;BME280;34578;0.000;0.000;2023-04-28T10:20:14;96485.78;;;17.39;55.57
48778;BME280;34578;0.000;0.000;2023-04-28T10:25:26;96497.63;;;17.40;55.50
48778;BME280;34578;0.000;0.000;2023-04-28T10:30:27;96484.09;;;17.38;55.54
48778;BME280;34578;0.000;0.000;2023-04-28T10:56:19;96481.59;;;17.48;63.25
48778;BME280;34578;0.000;0.000;2023-04-28T11:06:46;96474.84;;;17.53;57.98
48778;BME280;34578;0.000;0.000;2023-04-28T11:17:32;96465.56;;;17.46;55.55
48778;BME280;34578;0.000;0.000;2023-04-28T11:22:33;96461.34;;;17.45;55.57
48778;BME280;34578;0.000;0.000;2023-04-28T11:27:36;96457.13;;;17.43;55.79
48778;BME280;34578;0.000;0.000;2023-04-28T11:32:36;96462.19;;;17.43;55.37
48778;BME280;34578;0.000;0.000;2023-04-28T11:37:39;96452.06;;;17.43;55.23
48778;BME280;34578;0.000;0.000;2023-04-28T11:42:49;96447.00;;;17.37;55.09
48778;BME280;34578;0.000;0.000;2023-04-28T11:47:49;96449.53;;;17.43;55.50
48778;BME280;34578;0.000;0.000;2023-04-28T11:52:50;96444.47;;;17.49;55.27
48778;BME280;34578;0.000;0.000;2023-04-28T11:58:20;96439.41;;;17.50;55.12
48778;BME280;34578;0.000;0.000;2023-04-28T12:03:22;96421.69;;;17.49;55.66
48778;BME280;34578;0.000;0.000;2023-04-28T12:08:29;96431.78;;;17.59;63.26
48778;BME280;34578;0.000;0.000;2023-04-28T12:13:30;96421.69;;;17.61;64.47
48778;BME280;34578;0.000;0.000;2023-04-28T12:18:34;96414.09;;;17.58;58.07
48778;BME280;34578;0.000;0.000;2023-04-28T12:23:38;96412.41;;;17.52;55.80
48778;BME280;34578;0.000;0.000;2023-04-28T12:28:40;96408.19;;;17.53;55.35
48778;BME280;34578;0.000;0.000;2023-04-28T12:33:40;96420.00;;;17.51;55.62
48778;BME280;34578;0.000;0.000;2023-04-28T12:38:46;96403.97;;;17.50;55.55
48778;BME280;34578;0.000;0.000;2023-04-28T12:43:47;96423.38;;;17.50;55.51
48778;BME280;34578;0.000;0.000;2023-04-28T12:48:48;96414.94;;;17.51;55.63
48778;BME280;34578;0.000;0.000;2023-04-28T12:53:49;96406.50;;;17.49;55.72
48778;BME280;34578;0.000;0.000;2023-04-28T12:58:49;96399.78;;;17.48;55.97
48778;BME280;34578;0.000;0.000;2023-04-28T13:03:49;96410.72;;;17.48;57.27
48778;BME280;34578;0.000;0.000;2023-04-28T13:08:52;96395.53;;;17.47;56.02
48778;BME280;34578;0.000;0.000;2023-04-28T13:13:52;96400.59;;;17.47;56.36
48778;BME280;34578;0.000;0.000;2023-04-28T13:18:53;96401.41;;;17.59;63.15
48778;BME280;34578;0.000;0.000;2023-04-28T13:23:54;96403.13;;;17.65;63.21
48778;BME280;34578;0.000;0.000;2023-04-28T13:28:55;96398.03;;;17.62;60.78
48778;BME280;34578;0.000;0.000;2023-04-28T13:33:56;96385.41;;;17.56;56.81
48778;BME280;34578;0.000;0.000;2023-04-28T13:38:57;96380.34;;;17.51;56.03
48778;BME280;34578;0.000;0.000;2023-04-28T13:43:57;96373.59;;;17.50;56.62
48778;BME280;34578;0.000;0.000;2023-04-28T13:48:57;96371.91;;;17.49;56.63
48778;BME280;34578;0.000;0.000;2023-04-28T13:53:58;96363.50;;;17.49;57.06
48778;BME280;34578;0.000;0.000;2023-04-28T13:58:58;96396.38;;;17.49;57.72
48778;BME280;34578;0.000;0.000;2023-04-28T14:03:59;96357.56;;;17.48;57.20
48778;BME280;34578;0.000;0.000;2023-04-28T14:09:00;96373.63;;;17.49;57.37
48778;BME280;34578;0.000;0.000;2023-04-28T14:14:00;96371.09;;;17.49;57.50
48778;BME280;34578;0.000;0.000;2023-04-28T14:19:00;96350.84;;;17.49;57.25
48778;BME280;34578;0.000;0.000;2023-04-28T14:24:01;96346.63;;;17.46;56.98
48778;BME280;34578;0.000;0.000;2023-04-28T14:29:01;96334.78;;;17.57;64.19
48778;BME280;34578;0.000;0.000;2023-04-28T14:34:02;96343.22;;;17.62;64.89
48778;BME280;34578;0.000;0.000;2023-04-28T14:39:03;96335.59;;;17.64;62.48
48778;BME280;34578;0.000;0.000;2023-04-28T14:44:03;96347.44;;;17.56;58.35
48778;BME280;34578;0.000;0.000;2023-04-28T14:49:04;96342.41;;;17.50;57.34
48778;BME280;34578;0.000;0.000;2023-04-28T14:54:05;96339.84;;;17.48;57.11
48778;BME280;34578;0.000;0.000;2023-04-28T14:59:06;96337.31;;;17.48;57.92
48778;BME280;34578;0.000;0.000;2023-04-28T15:04:07;96349.97;;;17.47;57.11
48778;BME280;34578;0.000;0.000;2023-04-28T15:09:08;96331.44;;;17.46;57.29
48778;BME280;34578;0.000;0.000;2023-04-28T15:14:09;96328.03;;;17.46;57.19
48778;BME280;34578;0.000;0.000;2023-04-28T15:19:10;96317.94;;;17.44;56.67
48778;BME280;34578;0.000;0.000;2023-04-28T15:24:10;96330.59;;;17.47;58.54
48778;BME280;34578;0.000;0.000;2023-04-28T15:29:11;96318.78;;;17.48;57.93
48778;BME280;34578;0.000;0.000;2023-04-28T15:34:11;96312.00;;;17.47;58.54
48778;BME280;34578;0.000;0.000;2023-04-28T15:39:12;96320.44;;;17.55;64.47
48778;BME280;34578;0.000;0.000;2023-04-28T15:44:16;96326.31;;;17.66;64.54
48778;BME280;34578;0.000;0.000;2023-04-28T15:49:16;96313.66;;;17.69;65.25
48778;BME280;34578;0.000;0.000;2023-04-28T15:54:17;96301.88;;;17.59;58.76
48778;BME280;34578;0.000;0.000;2023-04-28T15:59:17;96291.78;;;17.48;57.41
48778;BME280;34578;0.000;0.000;2023-04-28T16:04:18;96293.47;;;17.51;57.05
48778;BME280;34578;0.000;0.000;2023-04-28T16:09:18;96295.16;;;17.49;57.45
48778;BME280;34578;0.000;0.000;2023-04-28T16:14:18;96292.63;;;17.46;57.23
48778;BME280;34578;0.000;0.000;2023-04-28T16:19:19;96290.09;;;17.46;57.34
48778;BME280;34578;0.000;0.000;2023-04-28T16:24:20;96287.56;;;17.43;57.07
48778;BME280;34578;0.000;0.000;2023-04-28T16:29:21;96297.69;;;17.41;56.47
48778;BME280;34578;0.000;0.000;2023-04-28T16:34:22;96301.91;;;17.42;57.09
48778;BME280;34578;0.000;0.000;2023-04-28T16:39:25;96298.50;;;17.54;65.11
48778;BME280;34578;0.000;0.000;2023-04-28T16:44:27;96307.75;;;17.65;65.55
48778;BME280;34578;0.000;0.000;2023-04-28T16:49:27;96306.91;;;17.69;66.15
48778;BME280;34578;0.000;0.000;2023-04-28T16:54:29;96306.09;;;17.61;62.23
48778;BME280;34578;0.000;0.000;2023-04-28T16:59:29;96301.06;;;17.52;59.54
48778;BME280;34578;0.000;0.000;2023-04-28T17:04:30;96297.66;;;17.50;58.34
48778;BME280;34578;0.000;0.000;2023-04-28T17:09:30;96289.25;;;17.50;58.44
48778;BME280;34578;0.000;0.000;2023-04-28T17:14:32;96293.47;;;17.48;58.40
48778;BME280;34578;0.000;0.000;2023-04-28T17:19:32;96294.31;;;17.47;58.29
48778;BME280;34578;0.000;0.000;2023-04-28T17:24:33;96285.91;;;17.43;57.96
48778;BME280;34578;0.000;0.000;2023-04-28T17:29:33;96293.47;;;17.45;57.84
48778;BME280;34578;0.000;0.000;2023-04-28T17:34:33;96285.91;;;17.43;57.80
48778;BME280;34578;0.000;0.000;2023-04-28T17:39:34;96292.59;;;17.52;61.30
48778;BME280;34578;0.000;0.000;2023-04-28T17:44:35;96293.41;;;17.66;63.64
48778;BME280;34578;0.000;0.000;2023-04-28T17:49:36;96296.78;;;17.62;62.28
48778;BME280;34578;0.000;0.000;2023-04-28T17:54:37;96297.66;;;17.56;59.68
48778;BME280;34578;0.000;0.000;2023-04-28T17:59:37;96300.22;;;17.49;57.55
48778;BME280;34578;0.000;0.000;2023-04-28T18:04:39;96301.06;;;17.48;57.82
48778;BME280;34578;0.000;0.000;2023-04-28T18:09:39;96307.81;;;17.44;57.16
48778;BME280;34578;0.000;0.000;2023-04-28T18:14:39;96308.69;;;17.43;56.85
48778;BME280;34578;0.000;0.000;2023-04-28T18:19:43;96309.50;;;17.48;60.71
48778;BME280;34578;0.000;0.000;2023-04-28T18:24:43;96317.88;;;17.61;66.22
48778;BME280;34578;0.000;0.000;2023-04-28T18:29:44;96317.88;;;17.59;62.84
48778;BME280;34578;0.000;0.000;2023-04-28T18:34:44;96316.22;;;17.49;59.24
48778;BME280;34578;0.000;0.000;2023-04-28T18:39:45;96313.72;;;17.45;57.39
48778;BME280;34578;0.000;0.000;2023-04-28T18:44:45;96319.63;;;17.44;56.95
48778;BME280;34578;0.000;0.000;2023-04-28T18:49:46;96324.69;;;17.39;56.74
48778;BME280;34578;0.000;0.000;2023-04-28T18:54:46;96329.75;;;17.41;56.68
48778;BME280;34578;0.000;0.000;2023-04-28T18:59:46;96338.22;;;17.40;56.49
48778;BME280;34578;0.000;0.000;2023-04-28T19:04:47;96346.63;;;17.39;56.45
48778;BME280;34578;0.000;0.000;2023-04-28T19:09:48;96357.56;;;17.56;65.88
48778;BME280;34578;0.000;0.000;2023-04-28T19:14:48;96358.38;;;17.61;66.59
48778;BME280;34578;0.000;0.000;2023-04-28T19:19:48;96350.81;;;17.58;60.05
48778;BME280;34578;0.000;0.000;2023-04-28T19:24:49;96365.16;;;17.47;58.03
48778;BME280;34578;0.000;0.000;2023-04-28T19:29:50;96367.72;;;17.44;57.46
48778;BME280;34578;0.000;0.000;2023-04-28T19:34:50;96362.66;;;17.41;57.13
48778;BME280;34578;0.000;0.000;2023-04-28T19:39:50;96382.03;;;17.40;56.67
48778;BME280;34578;0.000;0.000;2023-04-28T19:44:55;96383.75;;;17.38;56.79
48778;BME280;34578;0.000;0.000;2023-04-28T19:49:56;96389.63;;;17.39;56.65
48778;BME280;34578;0.000;0.000;2023-04-28T19:54:56;96409.88;;;17.39;56.31
48778;BME280;34578;0.000;0.000;2023-04-28T19:59:57;96400.59;;;17.42;59.51
48778;BME280;34578;0.000;0.000;2023-04-28T20:04:57;96399.75;;;17.57;65.97
48778;BME280;34578;0.000;0.000;2023-04-28T20:09:58;96407.31;;;17.63;62.46
48778;BME280;34578;0.000;0.000;2023-04-28T20:14:58;96414.09;;;17.53;59.70
48778;BME280;34578;0.000;0.000;2023-04-28T20:19:59;96413.25;;;17.44;57.44
48778;BME280;34578;0.000;0.000;2023-04-28T20:25:00;96416.66;;;17.40;57.01
48778;BME280;34578;0.000;0.000;2023-04-28T20:30:05;96409.88;;;17.39;56.72
48778;BME280;34578;0.000;0.000;2023-04-28T20:35:06;96415.78;;;17.38;56.59
48778;BME280;34578;0.000;0.000;2023-04-28T20:40:07;96419.16;;;17.37;56.26
48778;BME280;34578;0.000;0.000;2023-04-28T20:45:09;96425.94;;;17.36;56.33
48778;BME280;34578;0.000;0.000;2023-04-28T20:50:10;96417.44;;;17.34;56.04
48778;BME280;34578;0.000;0.000;2023-04-28T20:55:11;96414.94;;;17.51;65.59
48778;BME280;34578;0.000;0.000;2023-04-28T21:00:11;96421.66;;;17.59;66.64
48778;BME280;34578;0.000;0.000;2023-04-28T21:05:12;96425.91;;;17.59;61.21
48778;BME280;34578;0.000;0.000;2023-04-28T21:10:12;96425.91;;;17.48;60.78
48778;BME280;34578;0.000;0.000;2023-04-28T21:15:16;96435.19;;;17.42;57.40
48778;BME280;34578;0.000;0.000;2023-04-28T21:20:16;96426.75;;;17.37;56.58
48778;BME280;34578;0.000;0.000;2023-04-28T21:25:16;96433.53;;;17.36;56.62
48778;BME280;34578;0.000;0.000;2023-04-28T21:30:18;96427.59;;;17.36;56.67
48778;BME280;34578;0.000;0.000;2023-04-28T21:35:18;96436.88;;;17.37;56.85
48778;BME280;34578;0.000;0.000;2023-04-28T21:40:19;96427.59;;;17.36;57.32
48778;BME280;34578;0.000;0.000;2023-04-28T21:45:19;96427.56;;;17.34;55.97
48778;BME280;34578;0.000;0.000;2023-04-28T21:50:20;96435.16;;;17.34;56.26
48778;BME280;34578;0.000;0.000;2023-04-28T21:55:20;96433.50;;;17.53;66.27
48778;BME280;34578;0.000;0.000;2023-04-28T22:00:21;96423.38;;;17.59;67.12
48778;BME280;34578;0.000;0.000;2023-04-28T22:05:23;96426.72;;;17.55;62.01
48778;BME280;34578;0.000;0.000;2023-04-28T22:10:24;96420.84;;;17.44;57.71
48778;BME280;34578;0.000;0.000;2023-04-28T22:15:24;96410.72;;;17.42;56.94
48778;BME280;34578;0.000;0.000;2023-04-28T22:20:24;96411.59;;;17.40;56.62
48778;BME280;34578;0.000;0.000;2023-04-28T22:25:25;96414.09;;;17.38;56.26
48778;BME280;34578;0.000;0.000;2023-04-28T22:30:25;96420.84;;;17.38;56.21
48778;BME280;34578;0.000;0.000;2023-04-28T22:35:26;96427.59;;;17.37;56.08
48778;BME280;34578;0.000;0.000;2023-04-28T22:40:27;96436.88;;;17.37;55.82
48778;BME280;34578;0.000;0.000;2023-04-28T22:45:27;96441.09;;;17.38;56.16
48778;BME280;34578;0.000;0.000;2023-04-28T22:50:27;96433.53;;;17.36;55.68
48778;BME280;34578;0.000;0.000;2023-04-28T22:55:30;96445.31;;;17.54;66.12
48778;BME280;34578;0.000;0.000;2023-04-28T23:00:30;96445.31;;;17.60;66.83
48778;BME280;34578;0.000;0.000;2023-04-28T23:05:31;96445.31;;;17.57;60.89
48778;BME280;34578;0.000;0.000;2023-04-28T23:10:31;96436.88;;;17.46;57.69
48778;BME280;34578;0.000;0.000;2023-04-28T23:15:31;96444.47;;;17.43;56.80
48778;BME280;34578;0.000;0.000;2023-04-28T23:20:32;96436.91;;;17.40;56.45
48778;BME280;34578;0.000;0.000;2023-04-28T23:25:33;96440.25;;;17.37;56.07
48778;BME280;34578;0.000;0.000;2023-04-28T23:30:33;96445.31;;;17.39;56.24
48778;BME280;34578;0.000;0.000;2023-04-28T23:35:33;96445.31;;;17.36;56.21
48778;BME280;34578;0.000;0.000;2023-04-28T23:40:34;96442.78;;;17.37;55.85
48778;BME280;34578;0.000;0.000;2023-04-28T23:45:34;96446.16;;;17.36;55.71
48778;BME280;34578;0.000;0.000;2023-04-28T23:50:35;96453.72;;;17.35;55.82
48778;BME280;34578;0.000;0.000;2023-04-28T23:55:35;96448.66;;;17.47;60.44
